Time;durP1;ratioP1;P1;durP2;ratioP2;P2;SDS_P1;SDS_P2;PMS_P1;PMS_P2;Temp;Humidity;BMP_temperature;BMP_pressure;BME280_temperature;BME280_humidity;BME280_pressure;Samples;Min_cycle;Max_cycle;Signal;HPM_P1;HPM_P2
2021/12/11 00:00:53;;;;;;;63.60;35.50;;;;;;;2.25;72.97;99487.38;102873;1324;24627;-76
2021/12/11 00:03:28;;;;;;;59.80;34.20;;;;;;;2.23;72.93;99495.02;102852;1325;22561;-75
2021/12/11 00:06:18;;;;;;;56.90;32.70;;;;;;;2.23;73.06;99497.80;103339;1317;22630;-76
2021/12/11 00:08:49;;;;;;;67.40;34.40;;;;;;;2.20;72.92;99495.00;103439;1316;22965;-73
2021/12/11 00:11:36;;;;;;;74.00;35.20;;;;;;;2.19;73.00;99495.16;103517;1317;24379;-78
2021/12/11 00:14:08;;;;;;;68.90;35.70;;;;;;;2.20;72.98;99496.03;103332;1317;23975;-78
2021/12/11 00:16:37;;;;;;;76.00;35.40;;;;;;;2.20;73.00;99496.72;103610;1316;22656;-80
2021/12/11 00:19:14;;;;;;;64.00;32.70;;;;;;;2.19;72.82;99497.06;103577;1317;25334;-80
2021/12/11 00:21:42;;;;;;;64.80;31.90;;;;;;;2.14;72.78;99502.22;103753;1316;23024;-80
2021/12/11 00:24:16;;;;;;;62.50;33.20;;;;;;;2.19;73.05;99505.23;103551;1317;25242;-81
2021/12/11 00:26:50;;;;;;;60.00;32.50;;;;;;;2.22;72.93;99511.67;103354;1319;22618;-78
2021/12/11 00:29:23;;;;;;;66.20;32.50;;;;;;;2.20;72.85;99507.67;103654;1317;22578;-82
2021/12/11 00:32:01;;;;;;;60.50;31.40;;;;;;;2.19;72.80;99504.72;103678;1318;22530;-79
2021/12/11 00:34:28;;;;;;;66.60;32.20;;;;;;;2.15;72.84;99505.88;103591;1319;24256;-82
2021/12/11 00:37:18;;;;;;;70.50;34.30;;;;;;;2.15;72.96;99508.99;103676;1314;25223;-80
2021/12/11 00:39:53;;;;;;;68.90;35.10;;;;;;;2.17;73.02;99508.86;103772;1311;22777;-79
2021/12/11 00:42:24;;;;;;;69.40;31.40;;;;;;;2.15;72.70;99507.08;103824;1318;22523;-81
2021/12/11 00:44:54;;;;;;;70.50;33.60;;;;;;;2.08;72.64;99501.63;103995;1318;24079;-80
2021/12/11 00:47:32;;;;;;;68.80;33.10;;;;;;;2.11;73.06;99504.95;104574;1318;24239;-79
2021/12/11 00:50:07;;;;;;;64.30;32.30;;;;;;;2.16;73.18;99509.71;104617;1318;24266;-79
2021/12/11 00:52:40;;;;;;;82.00;34.80;;;;;;;2.22;73.09;99517.77;103962;1318;25462;-78
2021/12/11 00:55:26;;;;;;;69.60;32.10;;;;;;;2.27;73.08;99520.77;103915;1318;22870;-79
2021/12/11 00:58:31;;;;;;;77.10;32.80;;;;;;;2.29;73.03;99526.00;104156;1315;25396;-78
2021/12/11 01:01:07;;;;;;;72.60;32.60;;;;;;;2.17;72.49;99533.35;103834;1319;22555;-78
2021/12/11 01:03:57;;;;;;;73.40;33.50;;;;;;;2.08;72.75;99529.08;103529;1316;23939;-79
2021/12/11 01:06:33;;;;;;;75.10;33.40;;;;;;;2.05;72.96;99529.73;103310;1317;25258;-79
2021/12/11 01:09:11;;;;;;;72.50;33.40;;;;;;;2.03;72.92;99533.02;103471;1311;24231;-80
2021/12/11 01:11:43;;;;;;;73.50;35.00;;;;;;;2.03;73.18;99530.93;104027;1319;22542;-80
2021/12/11 01:14:22;;;;;;;68.60;32.20;;;;;;;2.06;73.21;99529.39;104940;1318;22559;-79
2021/12/11 01:17:02;;;;;;;63.30;32.00;;;;;;;2.11;73.32;99538.14;104167;1318;25254;-78
2021/12/11 01:19:36;;;;;;;68.60;32.40;;;;;;;2.11;72.99;99540.58;104221;1313;22582;-78
2021/12/11 01:22:19;;;;;;;63.70;33.40;;;;;;;2.12;73.11;99546.98;103997;1316;22629;-78
2021/12/11 01:24:51;;;;;;;65.30;32.70;;;;;;;2.12;73.06;99549.95;103987;1316;22985;-77
2021/12/11 01:27:24;;;;;;;66.00;33.00;;;;;;;2.10;72.99;99552.20;103665;1318;22936;-77
2021/12/11 01:29:56;;;;;;;78.50;34.10;;;;;;;2.05;73.00;99557.88;103759;1318;22676;-77
2021/12/11 01:32:27;;;;;;;85.10;36.10;;;;;;;2.08;73.12;99554.95;103730;1312;25194;-77
2021/12/11 01:34:57;;;;;;;82.60;35.10;;;;;;;2.09;73.05;99555.84;103727;1318;25297;-77
2021/12/11 01:37:24;;;;;;;71.10;34.80;;;;;;;2.08;73.00;99551.31;104586;1317;22587;-82
2021/12/11 01:39:53;;;;;;;73.90;34.80;;;;;;;2.05;72.82;99553.88;104068;1311;24193;-80
2021/12/11 01:42:27;;;;;;;65.90;33.00;;;;;;;2.02;73.03;99553.31;103793;1313;22608;-82
2021/12/11 01:44:56;;;;;;;70.90;35.00;;;;;;;2.04;73.38;99557.33;103254;1318;24976;-81
2021/12/11 01:47:33;;;;;;;68.70;33.70;;;;;;;2.11;73.32;99567.84;103352;1319;22590;-80
2021/12/11 01:50:10;;;;;;;63.30;34.20;;;;;;;2.06;73.12;99571.77;103423;1318;25236;-80
2021/12/11 01:53:09;;;;;;;80.60;35.90;;;;;;;2.06;73.29;99575.42;103746;1316;23835;-80
2021/12/11 01:55:54;;;;;;;85.20;36.00;;;;;;;2.08;73.46;99574.23;103358;1315;22657;-80
2021/12/11 01:58:30;;;;;;;91.40;38.70;;;;;;;2.08;73.06;99578.39;103339;1318;24305;-81
2021/12/11 02:00:59;;;;;;;;;;;;;;;2.01;72.96;99577.10;103327;1318;22684;-80
2021/12/11 02:03:32;;;;;;;78.80;36.00;;;;;;;2.00;73.38;99577.77;103357;1313;24682;-80
2021/12/11 02:05:59;;;;;;;85.40;37.80;;;;;;;2.03;73.47;99579.73;102992;1322;22691;-82
2021/12/11 02:08:30;;;;;;;94.40;36.80;;;;;;;2.03;73.40;99580.42;103100;1322;25265;-78
2021/12/11 02:10:59;;;;;;;81.60;37.50;;;;;;;2.05;73.48;99578.72;103050;1322;25259;-78
2021/12/11 02:13:43;;;;;;;78.30;33.60;;;;;;;2.07;73.37;99584.27;103009;1322;25348;-79
2021/12/11 02:16:44;;;;;;;75.10;34.60;;;;;;;2.04;73.10;99589.81;103269;1322;23448;-78
2021/12/11 02:19:38;;;;;;;65.50;31.00;;;;;;;2.00;73.30;99588.21;103232;1317;25272;-78
2021/12/11 02:22:14;;;;;;;70.50;32.20;;;;;;;1.95;73.12;99588.84;103062;1322;24810;-78
2021/12/11 02:24:48;;;;;;;73.70;32.20;;;;;;;1.91;73.20;99591.39;103161;1318;24223;-78
2021/12/11 02:27:21;;;;;;;74.10;32.50;;;;;;;1.91;73.41;99593.98;103056;1318;24260;-77
2021/12/11 02:30:16;;;;;;;76.30;33.50;;;;;;;1.93;73.35;99597.50;103252;1317;22680;-77
2021/12/11 02:32:51;;;;;;;80.50;35.00;;;;;;;1.91;73.28;99602.33;103028;1322;22589;-79
2021/12/11 02:35:30;;;;;;;71.80;32.90;;;;;;;1.94;73.45;99605.31;103003;1323;22855;-77
2021/12/11 02:38:20;;;;;;;80.20;33.70;;;;;;;1.96;73.46;99613.70;103067;1316;22640;-77
2021/12/11 02:40:57;;;;;;;63.60;30.00;;;;;;;2.03;73.43;99616.38;102968;1316;22584;-78
2021/12/11 02:43:41;;;;;;;73.20;32.00;;;;;;;1.96;72.98;99618.02;102570;1323;22560;-77
2021/12/11 02:46:16;;;;;;;74.70;31.80;;;;;;;1.92;73.27;99623.02;102508;1325;22859;-79
2021/12/11 02:48:51;;;;;;;71.10;31.40;;;;;;;1.89;73.20;99635.63;102538;1325;25644;-79
2021/12/11 02:51:30;;;;;;;66.00;32.30;;;;;;;1.83;73.21;99641.46;102559;1323;22585;-79
2021/12/11 02:54:13;;;;;;;64.20;28.50;;;;;;;1.78;73.43;99643.13;103160;1317;23149;-79
2021/12/11 02:56:49;;;;;;;75.50;32.70;;;;;;;1.77;73.36;99648.67;102970;1317;22601;-80
2021/12/11 02:59:23;;;;;;;64.20;30.80;;;;;;;1.74;73.41;99656.09;102761;1326;25369;-79
2021/12/11 03:02:05;;;;;;;74.40;31.80;;;;;;;1.77;73.49;99662.73;103002;1318;26006;-79
2021/12/11 03:04:38;;;;;;;69.10;31.30;;;;;;;1.78;73.25;99668.11;103171;1318;22583;-79
2021/12/11 03:07:09;;;;;;;65.90;29.80;;;;;;;1.73;73.40;99672.05;103497;1318;22719;-81
2021/12/11 03:09:40;;;;;;;71.20;30.70;;;;;;;1.74;73.51;99670.66;103320;1312;24211;-79
2021/12/11 03:12:10;;;;;;;68.80;31.70;;;;;;;1.78;73.63;99671.77;103440;1313;25541;-79
2021/12/11 03:14:38;;;;;;;58.50;28.80;;;;;;;1.82;73.66;99675.83;103238;1318;22778;-79
2021/12/11 03:17:06;;;;;;;60.60;28.50;;;;;;;1.82;73.57;99678.79;103167;1318;22696;-79
2021/12/11 03:19:36;;;;;;;59.30;27.30;;;;;;;1.82;73.63;99680.34;103220;1318;22660;-77
2021/12/11 03:22:06;;;;;;;70.10;29.70;;;;;;;1.79;73.48;99678.05;103130;1318;24436;-78
2021/12/11 03:24:33;;;;;;;73.20;31.40;;;;;;;1.79;73.39;99682.20;103151;1313;22566;-79
2021/12/11 03:27:01;;;;;;;64.90;30.10;;;;;;;1.78;73.39;99686.52;103157;1318;22573;-78
2021/12/11 03:29:29;;;;;;;68.60;29.90;;;;;;;1.79;73.43;99689.14;103035;1319;24288;-77
2021/12/11 03:31:57;;;;;;;58.20;27.70;;;;;;;1.82;73.64;99690.92;103333;1317;25562;-76
2021/12/11 03:34:27;;;;;;;60.50;29.30;;;;;;;1.81;73.29;99687.27;103100;1318;22576;-78
2021/12/11 03:36:57;;;;;;;56.70;28.30;;;;;;;1.77;73.08;99692.58;103391;1318;22733;-78
2021/12/11 03:39:28;;;;;;;61.30;29.00;;;;;;;1.70;73.26;99690.74;103394;1313;22667;-78
2021/12/11 03:41:57;;;;;;;63.40;28.00;;;;;;;1.73;73.50;99685.58;103404;1317;22603;-76
2021/12/11 03:44:32;;;;;;;58.80;26.90;;;;;;;1.74;73.52;99680.73;103324;1318;22572;-76
2021/12/11 03:47:04;;;;;;;50.90;25.90;;;;;;;1.72;73.30;99675.67;103321;1318;27057;-79
2021/12/11 03:49:32;;;;;;;61.80;26.80;;;;;;;1.66;73.02;99680.27;103415;1318;22703;-83
2021/12/11 03:52:00;;;;;;;58.30;26.60;;;;;;;1.60;73.24;99676.70;103404;1318;22995;-76
2021/12/11 03:54:32;;;;;;;51.60;24.80;;;;;;;1.58;73.08;99680.84;103295;1315;22534;-78
2021/12/11 03:57:00;;;;;;;53.30;24.80;;;;;;;1.55;73.16;99680.61;103458;1316;22664;-76
2021/12/11 03:59:27;;;;;;;48.10;23.50;;;;;;;1.61;73.42;99682.97;103251;1318;22631;-80
2021/12/11 04:02:03;;;;;;;52.40;25.40;;;;;;;1.67;73.30;99686.36;103151;1317;22673;-77
2021/12/11 04:04:37;;;;;;;45.80;24.40;;;;;;;1.63;73.09;99688.05;103451;1312;24269;-76
2021/12/11 04:07:08;;;;;;;43.50;22.60;;;;;;;1.63;73.02;99695.49;103399;1315;22623;-76
2021/12/11 04:09:36;;;;;;;51.90;24.40;;;;;;;1.59;73.12;99703.77;103244;1314;22599;-76
2021/12/11 04:12:05;;;;;;;53.20;24.60;;;;;;;1.58;73.08;99704.95;103265;1317;25358;-77
2021/12/11 04:14:37;;;;;;;49.80;24.00;;;;;;;1.52;73.00;99703.99;103101;1318;23237;-79
2021/12/11 04:17:05;;;;;;;56.40;24.40;;;;;;;1.49;73.27;99706.20;103429;1315;24233;-75
2021/12/11 04:19:33;;;;;;;52.90;26.40;;;;;;;1.49;73.30;99709.15;103435;1318;25569;-76
2021/12/11 04:22:01;;;;;;;50.50;25.10;;;;;;;1.52;73.42;99707.48;103521;1318;25272;-76
2021/12/11 04:24:31;;;;;;;51.90;26.00;;;;;;;1.57;73.37;99703.21;103352;1318;25253;-76
2021/12/11 04:27:02;;;;;;;52.40;24.50;;;;;;;1.63;73.51;99703.30;103313;1317;22638;-76
2021/12/11 04:29:30;;;;;;;58.80;26.30;;;;;;;1.63;73.18;99704.52;103231;1317;22595;-76
2021/12/11 04:32:01;;;;;;;48.10;23.70;;;;;;;1.59;73.12;99708.27;103335;1317;25422;-78
2021/12/11 04:34:30;;;;;;;44.00;21.40;;;;;;;1.57;73.14;99713.45;103408;1312;22890;-77
2021/12/11 04:37:10;;;;;;;39.50;21.50;;;;;;;1.49;72.85;99721.13;103224;1313;22563;-76
2021/12/11 04:39:39;;;;;;;42.80;22.10;;;;;;;1.40;72.91;99726.53;103219;1313;23263;-77
2021/12/11 04:42:21;;;;;;;49.30;23.50;;;;;;;1.37;73.12;99729.25;103382;1317;22818;-77
2021/12/11 04:44:48;;;;;;;37.00;19.60;;;;;;;1.35;73.15;99737.90;102957;1325;22591;-78
2021/12/11 04:47:41;;;;;;;42.10;20.60;;;;;;;1.28;72.98;99736.37;102954;1325;22646;-78
2021/12/11 04:50:21;;;;;;;52.30;24.10;;;;;;;1.26;73.25;99735.46;102681;1325;22781;-77
2021/12/11 04:52:58;;;;;;;48.30;23.50;;;;;;;1.28;73.25;99739.33;102702;1325;23991;-77
2021/12/11 05:01:39;;;;;;;51.60;25.20;;;;;;;1.43;73.32;99741.85;102948;1325;24296;-80
2021/12/11 05:09:35;;;;;;;53.90;23.10;;;;;;;1.45;73.39;99751.95;103281;1313;23053;-76
2021/12/11 05:12:33;;;;;;;55.10;24.60;;;;;;;1.44;73.54;99752.11;103332;1317;22643;-75
2021/12/11 05:15:03;;;;;;;45.70;22.30;;;;;;;1.40;73.51;99755.16;103198;1319;24247;-78
2021/12/11 05:17:30;;;;;;;52.20;24.10;;;;;;;1.37;73.62;99760.65;103352;1319;26594;-78
2021/12/11 05:19:57;;;;;;;52.00;26.40;;;;;;;1.39;73.70;99767.80;103488;1319;24212;-80
2021/12/11 05:22:24;;;;;;;53.10;25.30;;;;;;;1.44;73.77;99772.05;103279;1319;26581;-79
2021/12/11 05:24:55;;;;;;;57.30;26.70;;;;;;;1.51;73.90;99772.17;103252;1313;25611;-79
2021/12/11 05:27:22;;;;;;;54.10;26.00;;;;;;;1.58;73.82;99775.08;103329;1319;25489;-78
2021/12/11 05:29:50;;;;;;;50.50;25.00;;;;;;;1.61;73.79;99778.24;103508;1318;22860;-79
2021/12/11 05:32:22;;;;;;;57.80;24.80;;;;;;;1.62;73.52;99778.61;103435;1319;22560;-79
2021/12/11 05:34:50;;;;;;;54.50;25.30;;;;;;;1.58;73.51;99782.55;103247;1318;22567;-81
2021/12/11 05:37:18;;;;;;;54.50;24.70;;;;;;;1.57;73.52;99787.73;103422;1317;22583;-80
2021/12/11 05:39:47;;;;;;;53.50;25.40;;;;;;;1.56;73.52;99788.41;103371;1317;24206;-81
2021/12/11 05:42:15;;;;;;;53.70;26.10;;;;;;;1.52;73.54;99792.85;103273;1318;24195;-77
2021/12/11 05:44:42;;;;;;;52.30;25.20;;;;;;;1.47;73.45;99792.59;103416;1313;22669;-78
2021/12/11 05:47:10;;;;;;;52.50;25.10;;;;;;;1.47;73.62;99793.98;103364;1317;24392;-78
2021/12/11 05:49:40;;;;;;;54.60;25.80;;;;;;;1.48;73.67;99796.60;103543;1316;24315;-79
2021/12/11 05:52:11;;;;;;;49.40;24.50;;;;;;;1.53;73.85;99796.01;103443;1317;24418;-76
2021/12/11 05:54:42;;;;;;;54.50;26.80;;;;;;;1.60;73.70;99794.73;103344;1317;25597;-78
2021/12/11 05:57:12;;;;;;;50.10;24.50;;;;;;;1.58;73.32;99795.90;103355;1317;24215;-78
2021/12/11 05:59:41;;;;;;;51.40;25.10;;;;;;;1.61;73.60;99799.77;103436;1319;22806;-76
2021/12/11 06:02:08;;;;;;;49.10;25.20;;;;;;;1.66;73.63;99806.29;103290;1319;24205;-76
2021/12/11 06:04:37;;;;;;;48.80;24.40;;;;;;;1.70;73.50;99814.53;103207;1319;23969;-75
2021/12/11 06:07:08;;;;;;;43.30;22.10;;;;;;;1.68;73.14;99816.05;103569;1313;25312;-76
2021/12/11 06:09:37;;;;;;;40.80;21.70;;;;;;;1.63;73.08;99814.21;103482;1313;25539;-75
2021/12/11 06:12:09;;;;;;;44.20;23.40;;;;;;;1.59;73.24;99812.41;103433;1317;23124;-81
2021/12/11 06:14:38;;;;;;;47.20;23.60;;;;;;;1.60;73.46;99814.52;103359;1315;25967;-81
2021/12/11 06:17:07;;;;;;;47.40;23.20;;;;;;;1.62;73.48;99818.89;103471;1317;25246;-81
2021/12/11 06:19:35;;;;;;;44.20;24.20;;;;;;;1.65;73.38;99823.98;103375;1317;23248;-79
2021/12/11 06:22:03;;;;;;;43.90;23.50;;;;;;;1.69;73.32;99826.84;103505;1317;24295;-80
2021/12/11 06:24:30;;;;;;;47.60;25.10;;;;;;;1.72;73.19;99828.44;103306;1317;22575;-80
2021/12/11 06:26:58;;;;;;;42.20;22.30;;;;;;;1.79;73.27;99830.65;103263;1315;25370;-80
2021/12/11 06:29:27;;;;;;;42.00;22.70;;;;;;;1.82;73.19;99836.27;103352;1316;25534;-78
2021/12/11 06:31:56;;;;;;;41.00;22.40;;;;;;;1.84;73.07;99834.91;103359;1311;25278;-79
2021/12/11 06:34:24;;;;;;;39.80;22.50;;;;;;;1.88;73.02;99834.97;103441;1317;22571;-77
2021/12/11 06:36:52;;;;;;;43.40;23.40;;;;;;;1.90;73.04;99835.86;103167;1319;24239;-78
2021/12/11 06:39:22;;;;;;;42.40;23.00;;;;;;;1.92;73.00;99835.37;103550;1318;26544;-78
2021/12/11 06:41:52;;;;;;;43.50;23.20;;;;;;;1.91;72.88;99835.20;103255;1318;24261;-78
2021/12/11 06:44:20;;;;;;;45.20;24.50;;;;;;;1.89;72.82;99841.93;103486;1317;25547;-80
2021/12/11 06:46:52;;;;;;;46.80;23.30;;;;;;;1.84;72.75;99847.58;103190;1313;22573;-76
2021/12/11 06:49:20;;;;;;;52.90;24.90;;;;;;;1.83;72.74;99848.95;103249;1319;25428;-77
2021/12/11 06:51:46;;;;;;;51.70;25.80;;;;;;;1.82;72.67;99848.93;103071;1318;24205;-78
2021/12/11 06:54:14;;;;;;;53.20;26.80;;;;;;;1.85;72.91;99846.55;103217;1319;24254;-78
2021/12/11 06:56:42;;;;;;;53.90;27.00;;;;;;;1.89;72.75;99849.57;103045;1324;26658;-78
2021/12/11 06:59:10;;;;;;;58.30;28.70;;;;;;;1.89;72.80;99852.70;102632;1322;206688;-80
2021/12/11 07:01:38;;;;;;;83.20;34.40;;;;;;;1.89;72.64;99862.77;102756;1321;24080;-78
2021/12/11 07:04:07;;;;;;;68.60;32.70;;;;;;;1.85;72.76;99865.30;102632;1324;22665;-78
2021/12/11 07:06:37;;;;;;;69.30;31.40;;;;;;;1.88;72.76;99864.83;102645;1324;22667;-79
2021/12/11 07:09:08;;;;;;;71.40;31.60;;;;;;;1.88;72.88;99861.36;103243;1322;22772;-80
2021/12/11 07:11:39;;;;;;;59.50;28.70;;;;;;;1.87;72.73;99859.95;102786;1324;22596;-77
2021/12/11 07:14:07;;;;;;;72.70;33.20;;;;;;;1.79;72.93;99862.95;102968;1317;22579;-79
2021/12/11 07:16:36;;;;;;;68.10;32.70;;;;;;;1.79;72.90;99870.41;103458;1319;22596;-81
2021/12/11 07:19:06;;;;;;;64.40;30.80;;;;;;;1.79;73.05;99872.31;103364;1317;22560;-77
2021/12/11 07:21:34;;;;;;;61.50;30.50;;;;;;;1.83;73.15;99871.52;103371;1317;22791;-79
2021/12/11 07:24:02;;;;;;;66.60;32.20;;;;;;;1.92;73.21;99878.79;103485;1317;25364;-79
2021/12/11 07:26:33;;;;;;;62.80;30.30;;;;;;;1.98;73.11;99884.46;103373;1317;24056;-79
2021/12/11 07:29:08;;;;;;;58.50;29.60;;;;;;;2.02;73.07;99888.19;103423;1311;24365;-80
2021/12/11 07:31:36;;;;;;;54.70;27.50;;;;;;;2.02;72.99;99890.59;103531;1310;25237;-81
2021/12/11 07:34:04;;;;;;;54.10;26.20;;;;;;;1.97;72.73;99886.55;103355;1313;22584;-80
2021/12/11 07:36:32;;;;;;;64.50;30.50;;;;;;;1.95;72.89;99889.29;103396;1318;22573;-80
2021/12/11 07:39:04;;;;;;;50.40;25.00;;;;;;;1.93;72.75;99896.52;103332;1313;22637;-81
2021/12/11 07:41:32;;;;;;;71.60;30.00;;;;;;;1.88;72.75;99898.17;102842;1318;22670;-82
2021/12/11 07:43:59;;;;;;;65.70;29.40;;;;;;;1.89;72.87;99903.56;103138;1322;24220;-81
2021/12/11 07:46:29;;;;;;;56.80;26.20;;;;;;;1.92;72.95;99912.15;102864;1323;25304;-81
2021/12/11 07:48:57;;;;;;;54.80;27.00;;;;;;;1.98;73.08;99914.52;104357;1323;22678;-79
2021/12/11 07:51:27;;;;;;;51.70;26.50;;;;;;;2.09;73.01;99914.88;103016;1318;23404;-78
2021/12/11 07:53:58;;;;;;;50.00;24.70;;;;;;;2.13;72.60;99914.41;103150;1323;25306;-86
2021/12/11 07:56:26;;;;;;;45.80;25.20;;;;;;;2.14;72.52;99919.14;103279;1318;22676;-82
2021/12/11 07:58:57;;;;;;;44.60;24.10;;;;;;;2.18;72.63;99923.91;103576;1318;24218;-79
2021/12/11 08:01:26;;;;;;;48.60;25.40;;;;;;;2.18;72.56;99928.61;104002;1317;22562;-80
2021/12/11 08:03:57;;;;;;;41.50;24.10;;;;;;;2.20;72.66;99928.45;103917;1320;25377;-80
2021/12/11 08:06:24;;;;;;;43.30;24.90;;;;;;;2.23;72.64;99931.27;103456;1318;24268;-83
2021/12/11 08:08:51;;;;;;;45.50;26.10;;;;;;;2.28;72.58;99930.33;103951;1314;26507;-82
2021/12/11 08:11:19;;;;;;;42.50;24.50;;;;;;;2.34;72.52;99935.30;103476;1318;22592;-82
2021/12/11 08:13:49;;;;;;;54.60;25.40;;;;;;;2.36;72.34;99934.80;103009;1324;24314;-83
2021/12/11 08:16:22;;;;;;;47.60;26.60;;;;;;;2.37;72.30;99940.39;103127;1322;22625;-82
2021/12/11 08:18:52;;;;;;;46.90;26.10;;;;;;;2.44;72.49;99943.11;103269;1323;24091;-82
2021/12/11 08:21:21;;;;;;;48.20;26.40;;;;;;;2.53;72.41;99947.24;102903;1326;23031;-81
2021/12/11 08:23:54;;;;;;;53.70;27.30;;;;;;;2.55;72.24;99950.07;103286;1323;25392;-81
2021/12/11 08:26:24;;;;;;;50.20;27.50;;;;;;;2.58;72.18;99957.61;102206;1329;24261;-81
2021/12/11 08:28:52;;;;;;;47.70;26.30;;;;;;;2.62;72.29;99962.00;102296;1330;22638;-81
2021/12/11 08:31:21;;;;;;;52.80;28.30;;;;;;;2.63;72.15;99967.40;102696;1324;23045;-81
2021/12/11 08:33:50;;;;;;;50.60;28.70;;;;;;;2.61;72.11;99970.34;102826;1324;23019;-81
2021/12/11 08:36:17;;;;;;;50.30;28.00;;;;;;;2.60;71.87;99974.48;102814;1324;25514;-82
2021/12/11 08:38:45;;;;;;;49.60;29.00;;;;;;;2.56;71.66;99974.59;103947;1320;22703;-81
2021/12/11 08:41:18;;;;;;;53.90;29.70;;;;;;;2.51;71.81;99979.89;102871;1324;24221;-81
2021/12/11 08:43:52;;;;;;;44.20;26.90;;;;;;;2.50;72.00;99982.48;102804;1318;22574;-81
2021/12/11 08:46:27;;;;;;;51.10;27.30;;;;;;;2.53;72.05;99989.50;103453;1313;23867;-84
2021/12/11 08:49:05;;;;;;;51.00;28.00;;;;;;;2.53;71.84;99994.52;103045;1323;22656;-80
2021/12/11 08:51:48;;;;;;;49.20;27.70;;;;;;;2.58;72.00;99999.67;103044;1322;22530;-80
2021/12/11 08:54:16;;;;;;;47.60;27.40;;;;;;;2.67;71.98;100001.73;102915;1324;24276;-80
2021/12/11 08:56:43;;;;;;;45.80;26.90;;;;;;;2.68;71.74;100005.75;102856;1325;22968;-82
2021/12/11 08:59:15;;;;;;;52.80;28.70;;;;;;;2.70;71.65;100010.46;102583;1330;23901;-81
2021/12/11 09:01:45;;;;;;;49.30;27.60;;;;;;;2.75;71.70;100012.63;102823;1328;23742;-81
2021/12/11 09:04:23;;;;;;;47.90;28.30;;;;;;;2.74;71.47;100014.19;102689;1329;22606;-81
2021/12/11 09:06:58;;;;;;;45.50;26.00;;;;;;;2.68;71.53;100013.05;102436;1327;22576;-81
2021/12/11 09:09:37;;;;;;;46.00;26.80;;;;;;;2.70;71.54;100012.73;103997;1323;22597;-80
2021/12/11 09:12:07;;;;;;;50.30;28.10;;;;;;;2.71;71.64;100013.96;102961;1325;22602;-79
2021/12/11 09:14:43;;;;;;;45.20;26.30;;;;;;;2.69;71.59;100013.23;102907;1325;24247;-81
2021/12/11 09:17:17;;;;;;;53.10;29.70;;;;;;;2.66;71.65;100022.41;102695;1323;24883;-81
2021/12/11 09:20:07;;;;;;;57.30;29.40;;;;;;;2.65;71.66;100026.21;103191;1322;22707;-80
2021/12/11 09:22:39;;;;;;;56.50;30.10;;;;;;;2.69;71.75;100029.40;102882;1327;25386;-80
2021/12/11 09:25:22;;;;;;;53.90;28.80;;;;;;;2.72;71.78;100035.19;102971;1329;22602;-81
2021/12/11 09:27:56;;;;;;;55.80;29.40;;;;;;;2.77;71.74;100038.92;103080;1324;22539;-79
2021/12/11 09:30:26;;;;;;;52.80;29.90;;;;;;;2.80;71.66;100040.89;103138;1330;22581;-81
2021/12/11 09:33:03;;;;;;;51.70;29.10;;;;;;;2.82;71.54;100042.16;102807;1324;24161;-81
2021/12/11 09:35:35;;;;;;;49.80;29.40;;;;;;;2.82;71.46;100046.33;101744;1336;25245;-81
2021/12/11 09:38:13;;;;;;;67.20;34.60;;;;;;;2.78;71.36;100053.23;101590;1336;25918;-81
2021/12/11 09:40:40;;;;;;;56.00;31.70;;;;;;;2.68;71.19;100062.61;101802;1336;24272;-81
2021/12/11 09:43:06;;;;;;;56.00;31.10;;;;;;;2.56;71.19;100067.77;103031;1336;22587;-80
2021/12/11 09:45:39;;;;;;;46.30;28.10;;;;;;;2.49;71.50;100074.07;103199;1336;22759;-81
2021/12/11 09:48:17;;;;;;;58.40;29.10;;;;;;;2.48;71.78;100072.49;102474;1334;24240;-81
2021/12/11 09:50:57;;;;;;;49.50;28.80;;;;;;;2.54;71.98;100074.34;102151;1329;24119;-82
2021/12/11 09:53:47;;;;;;;52.40;28.70;;;;;;;2.63;71.87;100071.22;102240;1330;24469;-82
2021/12/11 09:56:25;;;;;;;51.60;29.50;;;;;;;2.58;71.51;100073.20;102250;1327;24202;-81
2021/12/11 09:58:53;;;;;;;51.30;28.60;;;;;;;2.58;71.74;100083.80;102190;1331;22602;-82
2021/12/11 10:01:27;;;;;;;46.70;26.70;;;;;;;2.60;72.00;100090.63;102739;1321;25481;-80
2021/12/11 10:04:00;;;;;;;49.50;27.80;;;;;;;2.64;72.00;100092.61;102989;1324;25253;-78
2021/12/11 10:06:41;;;;;;;42.80;22.70;;;;;;;2.61;71.82;100091.18;102852;1324;22635;-78
2021/12/11 10:09:18;;;;;;;56.90;29.30;;;;;;;2.45;71.66;100097.30;102916;1323;22576;-77
2021/12/11 10:12:04;;;;;;;65.00;30.40;;;;;;;2.41;72.35;100105.05;103024;1323;23960;-79
2021/12/11 10:14:36;;;;;;;71.70;32.90;;;;;;;2.40;72.37;100109.20;103131;1320;22861;-78
2021/12/11 10:17:11;;;;;;;70.90;32.90;;;;;;;2.40;72.49;100103.80;103081;1319;22583;-78
2021/12/11 10:19:42;;;;;;;70.40;33.60;;;;;;;2.45;72.60;100107.39;102307;1330;22656;-79
2021/12/11 10:22:24;;;;;;;63.40;31.80;;;;;;;2.55;72.88;100107.39;102220;1326;22625;-80
2021/12/11 10:24:53;;;;;;;64.30;32.10;;;;;;;2.61;72.50;100111.16;102500;1330;22739;-79
2021/12/11 10:27:25;;;;;;;58.60;30.70;;;;;;;2.66;72.64;100115.95;103407;1330;24227;-79
2021/12/11 10:29:54;;;;;;;58.40;31.00;;;;;;;2.73;72.61;100120.41;103410;1330;25648;-79
2021/12/11 10:32:31;;;;;;;58.80;29.50;;;;;;;2.74;72.36;100125.65;102818;1330;22920;-79
2021/12/11 10:35:12;;;;;;;58.80;31.50;;;;;;;2.75;72.30;100125.31;103146;1324;22590;-77
2021/12/11 10:37:40;;;;;;;65.00;33.30;;;;;;;2.76;72.27;100122.20;103043;1327;24324;-80
2021/12/11 10:40:29;;;;;;;55.60;30.70;;;;;;;2.75;72.28;100121.86;102924;1327;24113;-79
2021/12/11 10:43:05;;;;;;;63.40;32.00;;;;;;;2.77;72.25;100125.02;102465;1330;25397;-80
2021/12/11 10:45:32;;;;;;;74.50;33.00;;;;;;;2.75;72.33;100130.89;103320;1322;23263;-79
2021/12/11 10:48:05;;;;;;;68.70;33.70;;;;;;;2.73;72.36;100129.11;103019;1324;23348;-80
2021/12/11 10:50:39;;;;;;;66.70;34.20;;;;;;;2.71;72.29;100137.77;103021;1323;25855;-80
2021/12/11 10:53:13;;;;;;;66.00;32.10;;;;;;;2.71;72.53;100140.39;103280;1323;24221;-80
2021/12/11 10:55:42;;;;;;;71.40;34.80;;;;;;;2.65;72.01;100139.75;104542;1323;22661;-78
2021/12/11 10:58:18;;;;;;;69.30;33.60;;;;;;;2.51;72.06;100137.05;104739;1321;22608;-79
2021/12/11 11:00:48;;;;;;;62.70;30.60;;;;;;;2.47;72.59;100139.76;104421;1318;24336;-78
2021/12/11 11:03:18;;;;;;;68.40;34.30;;;;;;;2.44;72.54;100134.84;104733;1324;23101;-78
2021/12/11 11:05:45;;;;;;;65.20;33.90;;;;;;;2.45;73.00;100137.98;104709;1323;24228;-78
2021/12/11 11:08:13;;;;;;;63.90;32.50;;;;;;;2.53;72.92;100141.26;104515;1318;24096;-78
2021/12/11 11:10:50;;;;;;;74.20;35.40;;;;;;;2.48;72.65;100147.94;102994;1326;24006;-80
2021/12/11 11:13:21;;;;;;;73.30;35.60;;;;;;;2.48;72.70;100144.98;102460;1330;25511;-79
2021/12/11 11:15:49;;;;;;;90.90;38.90;;;;;;;2.49;72.81;100141.52;102345;1333;22598;-79
2021/12/11 11:18:19;;;;;;;80.80;38.50;;;;;;;2.47;73.00;100138.38;102128;1337;25403;-79
2021/12/11 11:20:55;;;;;;;85.70;38.30;;;;;;;2.52;73.01;100138.79;101744;1339;26666;-80
2021/12/11 11:23:23;;;;;;;88.30;40.00;;;;;;;2.52;73.00;100136.89;101825;1337;22599;-79
2021/12/11 11:25:55;;;;;;;88.30;38.90;;;;;;;2.55;73.05;100140.08;103488;1332;23022;-77
2021/12/11 11:28:24;;;;;;;96.70;41.40;;;;;;;2.56;72.88;100147.05;103570;1333;24253;-77
2021/12/11 11:30:57;;;;;;;78.70;36.30;;;;;;;2.55;73.05;100148.95;102542;1333;25261;-79
2021/12/11 11:33:26;;;;;;;96.40;40.40;;;;;;;2.61;73.08;100152.02;102190;1336;22810;-79
2021/12/11 11:35:53;;;;;;;88.20;39.70;;;;;;;2.67;72.98;100158.75;102676;1330;25405;-77
2021/12/11 11:38:28;;;;;;;90.80;38.60;;;;;;;2.72;72.87;100164.39;102783;1330;25266;-88
2021/12/11 11:41:01;;;;;;;96.60;40.10;;;;;;;2.77;73.06;100170.23;102997;1329;25273;-79
2021/12/11 11:43:28;;;;;;;80.10;38.20;;;;;;;2.92;73.10;100173.98;102546;1329;25214;-78
2021/12/11 11:45:56;;;;;;;82.10;35.80;;;;;;;2.99;72.90;100176.21;102733;1327;25387;-78
2021/12/11 11:48:29;;;;;;;90.80;36.00;;;;;;;3.04;72.69;100183.61;102713;1327;25257;-78
2021/12/11 11:51:19;;;;;;;75.90;35.20;;;;;;;3.03;72.31;100190.71;102967;1326;22621;-80